Gillette, WY (82716)

3:45 PM MST on December 04, 2016 (GMT -0700)
McCann Heights, central Gillette | | Change Station
Active Advisory: Winter Weather Advisory

Elev 4590 ft 44.28 °N, 105.50 °W | Updated 45 seconds ago

Clear
Clear
40.5 °F
Feels Like 40 °F
N
2.0
Wind Variable Wind from SSE

Today
High -- | Low -- °F
--% Chance of Precip.
Yesterday
High -- | Low -- °F
Precip. -- in
Pressure 29.69 in
Visibility 10.0 miles
Clouds Clear
Windchill 40 °F
Dew Point 20 °F
Humidity 45%
Rainfall 0.00 in
Snow Depth Not available.
7:21 AM 4:23 PM
Waxing Crescent, 26% visible
METAR KGCC 042153Z AUTO 11004KT 10SM CLR 04/M07 A2964 RMK AO2 SLP052 T00441072
Pressure 29.69 in
Visibility 10.0 miles
Clouds Clear
Windchill 40 °F
Dew Point 20 °F
Humidity 45%
Rainfall 0.00 in
Snow Depth Not available.
7:21 AM 4:23 PM
Waxing Crescent, 26% visible
METAR KGCC 042153Z AUTO 11004KT 10SM CLR 04/M07 A2964 RMK AO2 SLP052 T00441072

10-Day Weather Forecast

Almanac

Astronomy

Dec. 04, 2016 Rise Set
Actual Time
Civil Twilight
Nautical Twilight
Astronomical Twilight
Moon
Length of Visible Light
Length of Day
Tomorrow will be .
, % of the Moon is Illuminated

Today's Extremes

State Highs State Lows

Community

WunderPhotos

Upload Photos

1,955,686 photos uploaded!

WunderBlog® & News

Nearby

Air Quality

  Air Quality AQ Index Pollutant
Not available.

Snow Depth

Station Depth Elevation

Earthquake Activity

City Distance Mag. Time & Date
Minimum magnitude displayed is 2.5.

Coastal Water Temperatures

Place Temperature

Stations

Nearby Weather Stations

Station Location Temp. Windchill Dew Point Humidity Wind Precip. Elev Updated Type
                   

Watches & Warnings

Winter Weather Advisory
Issued: 2:32 PM MST Dec. 4, 2016 – National Weather Service

... Winter Weather Advisory remains in effect from midnight
tonight to 5 PM MST Monday...

* timing... late tonight through late Monday afternoon.

* Main impact... 2 to 4 inches of snow and breezy northwest winds
will create blowing snow and reduced visibilities.

* Other impacts... wind chill readings falling to near zero by
late Monday afternoon.

Precautionary/preparedness actions...

A Winter Weather Advisory means snow... freezing precipitation...
wind... and cold temperatures will create hazardous conditions.
Use caution when outdoors or traveling.